createdAt,value
2024-01-11T00:00:18.666Z,1022.97
2024-01-11T00:01:19.578Z,1022.98
2024-01-11T00:02:20.483Z,1022.94
2024-01-11T00:03:21.342Z,1022.93
2024-01-11T00:04:22.270Z,1022.92
2024-01-11T00:05:23.217Z,1022.90
2024-01-11T00:06:23.792Z,1022.95
2024-01-11T00:07:24.300Z,1022.98
2024-01-11T00:08:25.209Z,1022.96
2024-01-11T00:09:26.081Z,1022.93
2024-01-11T00:10:26.959Z,1022.96
2024-01-11T00:11:27.858Z,1022.97
2024-01-11T00:12:28.713Z,1022.96
2024-01-11T00:13:29.628Z,1022.95
2024-01-11T00:14:30.554Z,1022.98
2024-01-11T00:15:31.499Z,1022.98
2024-01-11T00:16:32.351Z,1023.00
2024-01-11T00:17:33.277Z,1023.00
2024-01-11T00:18:34.300Z,1022.97
2024-01-11T00:19:35.165Z,1022.97
2024-01-11T00:20:36.170Z,1022.96
2024-01-11T00:21:39.833Z,1022.96
2024-01-11T00:22:38.080Z,1022.95
2024-01-11T00:23:38.995Z,1022.94
2024-01-11T00:24:40.023Z,1022.93
2024-01-11T00:25:40.358Z,1022.96
2024-01-11T00:26:41.269Z,1022.93
2024-01-11T00:27:42.128Z,1022.96
2024-01-11T00:28:43.025Z,1022.95
2024-01-11T00:29:43.933Z,1022.93
2024-01-11T00:30:44.808Z,1022.92
2024-01-11T00:31:45.657Z,1022.94
2024-01-11T00:32:46.720Z,1022.94
2024-01-11T00:33:47.257Z,1022.95
2024-01-11T00:34:47.694Z,1022.93
2024-01-11T00:35:48.673Z,1022.93
2024-01-11T00:36:49.544Z,1022.92
2024-01-11T00:37:50.430Z,1022.90
2024-01-11T00:38:51.323Z,1022.89
2024-01-11T00:39:52.195Z,1022.92
2024-01-11T00:40:53.157Z,1022.89
2024-01-11T00:41:54.039Z,1022.86
2024-01-11T00:42:54.963Z,1022.89
2024-01-11T00:43:55.866Z,1022.89
2024-01-11T00:44:56.744Z,1022.90
2024-01-11T00:45:57.590Z,1022.90
2024-01-11T00:46:58.541Z,1022.91
2024-01-11T00:47:59.512Z,1022.93
2024-01-11T00:49:00.555Z,1022.90
2024-01-11T00:50:00.964Z,1022.92
2024-01-11T00:51:01.863Z,1022.94
2024-01-11T00:52:02.758Z,1022.94
2024-01-11T00:53:03.646Z,1022.92
2024-01-11T00:54:04.550Z,1022.91
2024-01-11T00:55:05.447Z,1022.92
2024-01-11T00:56:06.341Z,1022.92
2024-01-11T00:57:07.221Z,1022.90
2024-01-11T00:58:08.093Z,1022.92
2024-01-11T00:59:08.997Z,1022.92
2024-01-11T01:00:09.872Z,1022.94
2024-01-11T01:01:10.772Z,1022.95
2024-01-11T01:02:11.751Z,1022.91
2024-01-11T01:03:12.625Z,1022.92
2024-01-11T01:04:13.613Z,1022.94
2024-01-11T01:05:14.538Z,1022.93
2024-01-11T01:06:15.455Z,1022.92
2024-01-11T01:07:16.309Z,1022.91
2024-01-11T01:08:17.347Z,1022.93
2024-01-11T01:09:17.726Z,1022.94
2024-01-11T01:10:18.641Z,1022.93
2024-01-11T01:11:19.557Z,1022.94
2024-01-11T01:12:20.444Z,1022.93
2024-01-11T01:13:21.375Z,1022.96
2024-01-11T01:14:22.306Z,1022.99
2024-01-11T01:15:23.183Z,1023.00
2024-01-11T01:16:24.048Z,1022.99
2024-01-11T01:17:24.948Z,1022.98
2024-01-11T01:18:25.910Z,1023.00
2024-01-11T01:19:26.985Z,1023.03
2024-01-11T01:20:27.467Z,1023.01
2024-01-11T01:21:28.306Z,1023.03
2024-01-11T01:22:29.292Z,1023.02
2024-01-11T01:23:30.237Z,1023.02
2024-01-11T01:24:31.157Z,1023.02
2024-01-11T01:25:32.050Z,1023.00
2024-01-11T01:26:32.937Z,1023.02
2024-01-11T01:27:33.951Z,1023.03
2024-01-11T01:28:34.362Z,1023.04
2024-01-11T01:29:35.249Z,1023.03
2024-01-11T01:30:36.212Z,1023.05
2024-01-11T01:31:37.061Z,1023.09
2024-01-11T01:32:38.110Z,1023.08
2024-01-11T01:33:38.570Z,1023.08
2024-01-11T01:34:39.513Z,1023.08
2024-01-11T01:35:40.396Z,1023.08
2024-01-11T01:36:41.298Z,1023.07
2024-01-11T01:37:42.220Z,1023.05
2024-01-11T01:38:43.178Z,1023.06
2024-01-11T01:39:44.091Z,1023.08
2024-01-11T01:40:44.990Z,1023.07
2024-01-11T01:41:45.888Z,1023.10
2024-01-11T01:42:46.857Z,1023.14
2024-01-11T01:43:47.723Z,1023.13
2024-01-11T01:44:48.627Z,1023.13
2024-01-11T01:45:49.617Z,1023.15
2024-01-11T01:46:50.514Z,1023.17
2024-01-11T01:47:51.462Z,1023.18
2024-01-11T01:48:52.438Z,1023.20
2024-01-11T01:49:52.980Z,1023.22
2024-01-11T01:50:53.411Z,1023.22
2024-01-11T01:51:54.304Z,1023.20
2024-01-11T01:52:55.250Z,1023.18
2024-01-11T01:53:56.113Z,1023.15
2024-01-11T01:54:56.997Z,1023.17
2024-01-11T01:55:57.879Z,1023.15
2024-01-11T01:56:58.747Z,1023.20
2024-01-11T01:57:59.706Z,1023.19
2024-01-11T01:59:00.711Z,1023.20
2024-01-11T02:00:01.588Z,1023.19
2024-01-11T02:01:02.495Z,1023.19
2024-01-11T02:02:03.398Z,1023.17
2024-01-11T02:03:04.284Z,1023.14
2024-01-11T02:04:05.143Z,1023.14
2024-01-11T02:05:06.099Z,1023.12
2024-01-11T02:06:07.081Z,1023.15
2024-01-11T02:07:07.464Z,1023.16
2024-01-11T02:08:08.409Z,1023.15
2024-01-11T02:09:09.253Z,1023.16
2024-01-11T02:10:10.207Z,1023.21
2024-01-11T02:11:11.101Z,1023.21
2024-01-11T02:12:12.097Z,1023.20
2024-01-11T02:13:12.559Z,1023.21
2024-01-11T02:14:13.449Z,1023.21
2024-01-11T02:15:14.289Z,1023.23
2024-01-11T02:16:15.187Z,1023.21
2024-01-11T02:17:16.050Z,1023.23
2024-01-11T02:18:17.072Z,1023.24
2024-01-11T02:19:17.974Z,1023.25
2024-01-11T02:20:18.881Z,1023.24
2024-01-11T02:21:19.763Z,1023.23
2024-01-11T02:22:20.659Z,1023.24
2024-01-11T02:23:21.566Z,1023.23
2024-01-11T02:24:22.428Z,1023.24
2024-01-11T02:25:23.309Z,1023.24
2024-01-11T02:26:24.237Z,1023.20
2024-01-11T02:27:25.102Z,1023.20
2024-01-11T02:28:25.970Z,1023.23
2024-01-11T02:29:26.900Z,1023.23
2024-01-11T02:30:27.785Z,1023.24
2024-01-11T02:31:28.696Z,1023.24
2024-01-11T02:32:29.626Z,1023.22
2024-01-11T02:33:30.541Z,1023.20
2024-01-11T02:34:31.426Z,1023.20
2024-01-11T02:35:32.309Z,1023.19
2024-01-11T02:36:33.243Z,1023.20
2024-01-11T02:37:34.128Z,1023.20
2024-01-11T02:38:35.048Z,1023.20
2024-01-11T02:39:35.885Z,1023.19
2024-01-11T02:40:36.774Z,1023.20
2024-01-11T02:41:37.811Z,1023.22
2024-01-11T02:42:38.198Z,1023.23
2024-01-11T02:43:39.063Z,1023.22
2024-01-11T02:44:39.968Z,1023.22
2024-01-11T02:45:40.839Z,1023.21
2024-01-11T02:46:41.750Z,1023.20
2024-01-11T02:47:42.866Z,1023.22
2024-01-11T02:48:43.406Z,1023.22
2024-01-11T02:49:44.265Z,1023.23
2024-01-11T02:50:45.221Z,1023.23
2024-01-11T02:51:46.106Z,1023.23
2024-01-11T02:52:46.981Z,1023.22
2024-01-11T02:53:47.883Z,1023.22
2024-01-11T02:54:48.740Z,1023.21
2024-01-11T02:55:49.630Z,1023.15
2024-01-11T02:56:50.571Z,1023.17
2024-01-11T02:57:51.415Z,1023.15
2024-01-11T02:58:52.303Z,1023.14
2024-01-11T02:59:53.182Z,1023.11
2024-01-11T03:00:54.089Z,1023.10
2024-01-11T03:01:55.070Z,1023.10
2024-01-11T03:02:55.985Z,1023.09
2024-01-11T03:03:56.883Z,1023.09
2024-01-11T03:04:57.831Z,1023.06
2024-01-11T03:05:58.838Z,1023.00
2024-01-11T03:06:59.245Z,1022.99
2024-01-11T03:08:00.244Z,1022.97
2024-01-11T03:09:00.663Z,1022.95
2024-01-11T03:10:01.518Z,1022.94
2024-01-11T03:11:02.448Z,1022.91
2024-01-11T03:12:03.312Z,1022.90
2024-01-11T03:13:04.171Z,1022.90
2024-01-11T03:14:05.115Z,1022.92
2024-01-11T03:15:05.992Z,1022.90
2024-01-11T03:16:06.886Z,1022.91
2024-01-11T03:17:07.902Z,1022.91
2024-01-11T03:18:08.703Z,1022.89
2024-01-11T03:19:09.396Z,1022.88
2024-01-11T03:20:09.854Z,1022.86
2024-01-11T03:21:10.685Z,1022.86
2024-01-11T03:22:11.562Z,1022.83
2024-01-11T03:23:12.491Z,1022.85
2024-01-11T03:24:13.344Z,1022.82
2024-01-11T03:25:14.251Z,1022.83
2024-01-11T03:26:15.145Z,1022.82
2024-01-11T03:27:16.021Z,1022.83
2024-01-11T03:28:16.901Z,1022.84
2024-01-11T03:29:17.852Z,1022.84
2024-01-11T03:30:18.826Z,1022.85
2024-01-11T03:31:19.685Z,1022.88
2024-01-11T03:32:20.704Z,1022.89
2024-01-11T03:33:21.332Z,1022.90
2024-01-11T03:34:21.911Z,1022.89
2024-01-11T03:35:22.408Z,1022.86
2024-01-11T03:36:23.238Z,1022.86
2024-01-11T03:37:24.113Z,1022.86
2024-01-11T03:38:25.070Z,1022.86
2024-01-11T03:39:25.929Z,1022.83
2024-01-11T03:40:26.830Z,1022.83
2024-01-11T03:41:27.724Z,1022.82
2024-01-11T03:42:28.570Z,1022.83
2024-01-11T03:43:29.463Z,1022.80
2024-01-11T03:44:30.426Z,1022.81
2024-01-11T03:45:31.322Z,1022.78
2024-01-11T03:46:32.181Z,1022.79
2024-01-11T03:47:33.170Z,1022.79
2024-01-11T03:48:33.703Z,1022.78
2024-01-11T03:49:34.095Z,1022.78
2024-01-11T03:50:34.992Z,1022.78
2024-01-11T03:51:35.861Z,1022.77
2024-01-11T03:52:36.752Z,1022.74
2024-01-11T03:53:37.938Z,1022.72
2024-01-11T03:54:38.522Z,1022.72
2024-01-11T03:55:39.367Z,1022.72
2024-01-11T03:56:40.444Z,1022.71
2024-01-11T03:57:40.918Z,1022.68
2024-01-11T03:58:41.806Z,1022.66
2024-01-11T03:59:42.764Z,1022.65
2024-01-11T04:00:43.705Z,1022.66
2024-01-11T04:01:44.585Z,1022.64
2024-01-11T04:02:45.566Z,1022.63
2024-01-11T04:03:46.001Z,1022.60
2024-01-11T04:04:46.863Z,1022.61
2024-01-11T04:05:48.030Z,1022.60
2024-01-11T04:06:48.464Z,1022.61
2024-01-11T04:07:49.337Z,1022.61
2024-01-11T04:08:50.249Z,1022.61
2024-01-11T04:09:51.097Z,1022.64
2024-01-11T04:10:51.983Z,1022.63
2024-01-11T04:11:52.869Z,1022.64
2024-01-11T04:12:53.766Z,1022.65
2024-01-11T04:13:54.692Z,1022.64
2024-01-11T04:14:55.519Z,1022.66
2024-01-11T04:15:56.392Z,1022.66
2024-01-11T04:16:57.297Z,1022.69
2024-01-11T04:17:58.322Z,1022.68
2024-01-11T04:18:58.843Z,1022.68
2024-01-11T04:19:59.261Z,1022.70
2024-01-11T04:21:00.118Z,1022.69
2024-01-11T04:22:00.989Z,1022.67
2024-01-11T04:23:01.918Z,1022.67
2024-01-11T04:24:02.785Z,1022.64
2024-01-11T04:25:03.665Z,1022.64
2024-01-11T04:26:04.544Z,1022.65
2024-01-11T04:27:05.436Z,1022.64
2024-01-11T04:28:06.362Z,1022.61
2024-01-11T04:29:07.264Z,1022.63
2024-01-11T04:30:08.179Z,1022.66
2024-01-11T04:31:09.022Z,1022.63
2024-01-11T04:32:09.938Z,1022.65
2024-01-11T04:33:11.047Z,1022.61
2024-01-11T04:34:11.534Z,1022.63
2024-01-11T04:35:12.513Z,1022.57
2024-01-11T04:36:13.382Z,1022.59
2024-01-11T04:37:14.273Z,1022.57
2024-01-11T04:38:15.177Z,1022.54
2024-01-11T04:39:16.016Z,1022.50
2024-01-11T04:40:16.911Z,1022.54
2024-01-11T04:41:17.825Z,1022.55
2024-01-11T04:42:18.674Z,1022.55
2024-01-11T04:43:19.570Z,1022.57
2024-01-11T04:44:20.493Z,1022.53
2024-01-11T04:45:21.350Z,1022.55
2024-01-11T04:46:22.248Z,1022.52
2024-01-11T04:47:23.213Z,1022.53
2024-01-11T04:48:24.281Z,1022.49
2024-01-11T04:49:24.697Z,1022.47
2024-01-11T04:50:25.658Z,1022.47
2024-01-11T04:51:26.042Z,1022.42
2024-01-11T04:52:26.917Z,1022.43
2024-01-11T04:53:27.841Z,1022.42
2024-01-11T04:54:28.707Z,1022.39
2024-01-11T04:55:29.610Z,1022.38
2024-01-11T04:56:30.507Z,1022.41
2024-01-11T04:57:31.355Z,1022.44
2024-01-11T04:58:32.238Z,1022.40
2024-01-11T04:59:33.160Z,1022.38
2024-01-11T05:00:34.052Z,1022.37
2024-01-11T05:01:34.902Z,1022.33
2024-01-11T05:02:35.880Z,1022.33
2024-01-11T05:03:36.468Z,1022.32
2024-01-11T05:04:37.308Z,1022.27
2024-01-11T05:05:38.294Z,1022.31
2024-01-11T05:06:38.864Z,1022.34
2024-01-11T05:07:39.258Z,1022.34
2024-01-11T05:08:40.152Z,1022.36
2024-01-11T05:09:41.021Z,1022.35
2024-01-11T05:10:41.909Z,1022.32
2024-01-11T05:11:42.843Z,1022.33
2024-01-11T05:12:43.697Z,1022.33
2024-01-11T05:13:44.575Z,1022.32
2024-01-11T05:14:45.505Z,1022.30
2024-01-11T05:15:46.356Z,1022.30
2024-01-11T05:16:47.237Z,1022.29
2024-01-11T05:17:48.169Z,1022.32
2024-01-11T05:18:48.818Z,1022.30
2024-01-11T05:19:49.210Z,1022.33
2024-01-11T05:20:50.108Z,1022.33
2024-01-11T05:21:50.957Z,1022.34
2024-01-11T05:22:51.853Z,1022.38
2024-01-11T05:23:52.729Z,1022.36
2024-01-11T05:24:53.628Z,1022.40
2024-01-11T05:25:54.476Z,1022.40
2024-01-11T05:26:55.442Z,1022.39
2024-01-11T05:27:56.304Z,1022.40
2024-01-11T05:28:57.260Z,1022.38
2024-01-11T05:29:58.138Z,1022.38
2024-01-11T05:30:59.098Z,1022.37
2024-01-11T05:32:00.049Z,1022.37
2024-01-11T05:33:01.216Z,1022.38
2024-01-11T05:34:01.990Z,1022.41
2024-01-11T05:35:02.561Z,1022.40
2024-01-11T05:36:03.442Z,1022.42
2024-01-11T05:37:04.297Z,1022.44
2024-01-11T05:38:05.243Z,1022.46
2024-01-11T05:39:06.079Z,1022.48
2024-01-11T05:40:06.954Z,1022.46
2024-01-11T05:41:07.860Z,1022.53
2024-01-11T05:42:08.727Z,1022.53
2024-01-11T05:43:09.653Z,1022.51
2024-01-11T05:44:10.556Z,1022.53
2024-01-11T05:45:11.403Z,1022.52
2024-01-11T05:46:12.273Z,1022.50
2024-01-11T05:47:13.173Z,1022.52
2024-01-11T05:48:14.103Z,1022.53
2024-01-11T05:49:15.127Z,1022.55
2024-01-11T05:50:15.541Z,1022.56
2024-01-11T05:51:16.394Z,1022.55
2024-01-11T05:52:17.278Z,1022.55
2024-01-11T05:53:18.178Z,1022.57
2024-01-11T05:54:19.050Z,1022.60
2024-01-11T05:55:19.908Z,1022.58
2024-01-11T05:56:20.829Z,1022.60
2024-01-11T05:57:21.731Z,1022.63
2024-01-11T05:58:22.611Z,1022.66
2024-01-11T05:59:23.533Z,1022.68
2024-01-11T06:00:24.419Z,1022.69
2024-01-11T06:01:25.321Z,1022.70
2024-01-11T06:02:26.220Z,1022.68
2024-01-11T06:03:27.074Z,1022.71
2024-01-11T06:04:27.984Z,1022.69
2024-01-11T06:05:28.894Z,1022.69
2024-01-11T06:06:29.857Z,1022.70
2024-01-11T06:07:30.714Z,1022.69
2024-01-11T06:08:31.644Z,1022.71
2024-01-11T06:09:32.527Z,1022.69
2024-01-11T06:10:33.417Z,1022.70
2024-01-11T06:11:34.320Z,1022.71
2024-01-11T06:12:35.175Z,1022.72
2024-01-11T06:13:36.086Z,1022.71
2024-01-11T06:14:37.085Z,1022.67
2024-01-11T06:15:37.483Z,1022.63
2024-01-11T06:16:38.359Z,1022.64
2024-01-11T06:17:39.380Z,1022.65
2024-01-11T06:18:39.899Z,1022.65
2024-01-11T06:19:40.359Z,1022.66
2024-01-11T06:20:41.224Z,1022.65
2024-01-11T06:21:42.135Z,1022.66
2024-01-11T06:22:46.167Z,1022.69
2024-01-11T06:23:43.774Z,1022.74
2024-01-11T06:24:44.641Z,1022.76
2024-01-11T06:25:45.518Z,1022.76
2024-01-11T06:26:46.409Z,1022.79
2024-01-11T06:27:47.209Z,1022.83
2024-01-11T06:28:48.050Z,1022.84
2024-01-11T06:29:48.997Z,1022.86
2024-01-11T06:30:49.903Z,1022.91
2024-01-11T06:31:50.743Z,1022.92
2024-01-11T06:32:51.723Z,1022.95
2024-01-11T06:33:52.660Z,1022.94
2024-01-11T06:34:53.644Z,1022.94
2024-01-11T06:35:54.029Z,1022.95
2024-01-11T06:36:54.829Z,1022.97
2024-01-11T06:37:55.658Z,1022.98
2024-01-11T06:38:56.493Z,1022.97
2024-01-11T06:39:57.311Z,1022.99
2024-01-11T06:40:58.222Z,1023.00
2024-01-11T06:41:59.073Z,1023.02
2024-01-11T06:42:59.897Z,1023.03
2024-01-11T06:44:02.041Z,1023.05
2024-01-11T06:45:01.483Z,1023.05
2024-01-11T06:46:02.315Z,1023.02
2024-01-11T06:47:03.185Z,1023.01
2024-01-11T06:48:04.149Z,1022.98
2024-01-11T06:49:04.541Z,1022.98
2024-01-11T06:50:05.430Z,1022.98
2024-01-11T06:51:06.210Z,1022.97
2024-01-11T06:52:07.037Z,1023.00
2024-01-11T06:53:08.076Z,1023.01
2024-01-11T06:54:08.885Z,1023.01
2024-01-11T06:55:09.722Z,1023.01
2024-01-11T06:56:10.586Z,1023.04
2024-01-11T06:57:11.381Z,1023.06
2024-01-11T06:58:12.249Z,1023.11
2024-01-11T06:59:13.083Z,1023.14
2024-01-11T07:00:13.887Z,1023.17
2024-01-11T07:01:14.786Z,1023.21
2024-01-11T07:02:15.621Z,1023.22
2024-01-11T07:03:16.441Z,1023.23
2024-01-11T07:04:17.304Z,1023.28
2024-01-11T07:05:18.338Z,1023.29
2024-01-11T07:06:19.264Z,1023.30
2024-01-11T07:07:19.655Z,1023.34
2024-01-11T07:08:20.506Z,1023.34
2024-01-11T07:09:21.321Z,1023.33
2024-01-11T07:10:22.136Z,1023.33
2024-01-11T07:11:23.000Z,1023.31
2024-01-11T07:12:23.805Z,1023.30
2024-01-11T07:13:24.626Z,1023.30
2024-01-11T07:14:25.458Z,1023.28
2024-01-11T07:15:26.284Z,1023.27
2024-01-11T07:16:27.105Z,1023.27
2024-01-11T07:17:28.052Z,1023.27
2024-01-11T07:18:28.472Z,1023.25
2024-01-11T07:19:29.361Z,1023.27
2024-01-11T07:20:30.228Z,1023.31
2024-01-11T07:21:31.276Z,1023.34
2024-01-11T07:22:31.571Z,1023.37
2024-01-11T07:23:32.382Z,1023.36
2024-01-11T07:24:33.218Z,1023.38
2024-01-11T07:25:34.039Z,1023.37
2024-01-11T07:26:34.892Z,1023.41
2024-01-11T07:27:35.696Z,1023.43
2024-01-11T07:28:36.527Z,1023.44
2024-01-11T07:29:37.525Z,1023.46
2024-01-11T07:30:38.370Z,1023.49
2024-01-11T07:31:39.143Z,1023.45
2024-01-11T07:32:40.147Z,1023.46
2024-01-11T07:33:40.785Z,1023.51
2024-01-11T07:34:41.158Z,1023.55
2024-01-11T07:35:41.993Z,1023.60
2024-01-11T07:36:42.815Z,1023.61
2024-01-11T07:37:43.655Z,1023.67
2024-01-11T07:38:44.603Z,1023.68
2024-01-11T07:39:45.420Z,1023.68
2024-01-11T07:40:46.253Z,1023.67
2024-01-11T07:41:47.124Z,1023.63
2024-01-11T07:42:47.827Z,1023.64
2024-01-11T07:43:53.905Z,1023.63
2024-01-11T07:44:50.380Z,1023.65
2024-01-11T07:45:50.178Z,1023.66
2024-01-11T07:46:54.378Z,1023.67
2024-01-11T07:47:51.863Z,1023.68
2024-01-11T07:48:52.820Z,1023.70
2024-01-11T07:49:53.625Z,1023.69
2024-01-11T07:50:54.529Z,1023.70
2024-01-11T07:51:55.416Z,1023.71
2024-01-11T07:52:56.214Z,1023.70
2024-01-11T07:53:57.051Z,1023.68
2024-01-11T07:54:57.903Z,1023.69
2024-01-11T07:55:58.767Z,1023.67
2024-01-11T07:56:59.554Z,1023.69
2024-01-11T07:58:00.397Z,1023.67
2024-01-11T07:59:01.243Z,1023.66
2024-01-11T08:00:02.107Z,1023.66
2024-01-11T08:01:02.973Z,1023.69
2024-01-11T08:02:03.814Z,1023.68
2024-01-11T08:03:04.737Z,1023.68
2024-01-11T08:04:05.633Z,1023.68
2024-01-11T08:05:06.518Z,1023.67
2024-01-11T08:06:07.409Z,1023.67
2024-01-11T08:07:08.308Z,1023.67
2024-01-11T08:08:09.144Z,1023.69
2024-01-11T08:09:09.985Z,1023.66
2024-01-11T08:10:10.803Z,1023.70
2024-01-11T08:11:11.641Z,1023.71
2024-01-11T08:12:12.546Z,1023.73
2024-01-11T08:13:13.419Z,1023.75
2024-01-11T08:14:14.305Z,1023.77
2024-01-11T08:15:15.093Z,1023.80
2024-01-11T08:16:15.942Z,1023.81
2024-01-11T08:17:16.867Z,1023.78
2024-01-11T08:18:17.668Z,1023.79
2024-01-11T08:19:18.545Z,1023.77
2024-01-11T08:20:19.493Z,1023.73
2024-01-11T08:21:19.950Z,1023.70
2024-01-11T08:22:26.043Z,1023.69
2024-01-11T08:23:22.467Z,1023.67
2024-01-11T08:24:22.281Z,1023.66
2024-01-11T08:25:23.101Z,1023.66
2024-01-11T08:26:23.951Z,1023.66
2024-01-11T08:27:24.769Z,1023.67
2024-01-11T08:28:25.598Z,1023.67
2024-01-11T08:29:26.469Z,1023.69
2024-01-11T08:30:27.304Z,1023.72
2024-01-11T08:31:28.138Z,1023.71
2024-01-11T08:32:32.167Z,1023.69
2024-01-11T08:33:29.643Z,1023.72
2024-01-11T08:34:30.759Z,1023.73
2024-01-11T08:35:31.318Z,1023.77
2024-01-11T08:36:31.746Z,1023.80
2024-01-11T08:37:32.561Z,1023.80
2024-01-11T08:38:33.474Z,1023.83
2024-01-11T08:39:34.277Z,1023.85
2024-01-11T08:40:35.087Z,1023.83
2024-01-11T08:41:35.965Z,1023.80
2024-01-11T08:42:36.754Z,1023.79
2024-01-11T08:43:37.588Z,1023.78
2024-01-11T08:44:38.603Z,1023.78
2024-01-11T08:45:39.401Z,1023.76
2024-01-11T08:46:40.212Z,1023.75
2024-01-11T08:47:41.173Z,1023.75
2024-01-11T08:48:41.781Z,1023.76
2024-01-11T08:49:42.623Z,1023.75
2024-01-11T08:50:43.472Z,1023.77
2024-01-11T08:51:44.303Z,1023.80
2024-01-11T08:52:45.126Z,1023.81
2024-01-11T08:53:45.999Z,1023.80
2024-01-11T08:54:46.817Z,1023.81
2024-01-11T08:55:47.886Z,1023.83
2024-01-11T08:56:48.253Z,1023.81
2024-01-11T08:57:49.694Z,1023.79
2024-01-11T08:58:49.881Z,1023.77
2024-01-11T08:59:50.311Z,1023.74
2024-01-11T09:00:51.173Z,1023.74
2024-01-11T09:01:57.789Z,1023.74
2024-01-11T09:02:53.788Z,1023.70
2024-01-11T09:03:53.595Z,1023.70
2024-01-11T09:04:54.407Z,1023.70
2024-01-11T09:05:55.295Z,1023.70
2024-01-11T09:06:56.231Z,1023.73
2024-01-11T09:07:57.046Z,1023.71
2024-01-11T09:08:57.879Z,1023.73
2024-01-11T09:09:58.710Z,1023.73
2024-01-11T09:10:59.601Z,1023.71
2024-01-11T09:12:00.413Z,1023.69
2024-01-11T09:13:01.246Z,1023.67
2024-01-11T09:14:02.080Z,1023.66
2024-01-11T09:15:02.905Z,1023.62
2024-01-11T09:16:03.722Z,1023.60
2024-01-11T09:17:04.594Z,1023.58
2024-01-11T09:18:05.682Z,1023.59
2024-01-11T09:19:06.237Z,1023.61
2024-01-11T09:20:07.060Z,1023.66
2024-01-11T09:21:07.878Z,1023.72
2024-01-11T09:22:08.722Z,1023.75
2024-01-11T09:23:09.558Z,1023.78
2024-01-11T09:24:10.361Z,1023.81
2024-01-11T09:25:11.194Z,1023.82
2024-01-11T09:26:12.104Z,1023.81
2024-01-11T09:27:12.947Z,1023.79
2024-01-11T09:28:13.717Z,1023.77
2024-01-11T09:29:14.613Z,1023.79
2024-01-11T09:30:15.494Z,1023.80
2024-01-11T09:31:16.343Z,1023.84
2024-01-11T09:32:17.276Z,1023.86
2024-01-11T09:33:18.299Z,1023.92
2024-01-11T09:34:18.727Z,1023.93
2024-01-11T09:35:19.553Z,1023.94
2024-01-11T09:36:20.365Z,1023.92
2024-01-11T09:37:21.210Z,1023.92
2024-01-11T09:38:22.102Z,1023.87
2024-01-11T09:39:23.010Z,1023.88
2024-01-11T09:40:23.856Z,1023.85
2024-01-11T09:41:24.699Z,1023.86
2024-01-11T09:42:25.488Z,1023.86
2024-01-11T09:43:26.311Z,1023.89
2024-01-11T09:44:27.232Z,1023.87
2024-01-11T09:45:27.734Z,1023.82
2024-01-11T09:46:28.562Z,1023.82
2024-01-11T09:47:29.569Z,1023.83
2024-01-11T09:48:29.965Z,1023.86
2024-01-11T09:49:30.799Z,1023.83
2024-01-11T09:50:31.673Z,1023.86
2024-01-11T09:51:32.462Z,1023.88
2024-01-11T09:52:34.453Z,1023.87
2024-01-11T09:53:34.157Z,1023.92
2024-01-11T09:54:34.968Z,1023.91
2024-01-11T09:55:35.794Z,1023.92
2024-01-11T09:56:36.698Z,1023.96
2024-01-11T09:57:37.530Z,1023.97
2024-01-11T09:58:38.371Z,1023.96
2024-01-11T09:59:39.301Z,1023.98
2024-01-11T10:00:40.142Z,1023.95
2024-01-11T10:01:40.931Z,1023.96
2024-01-11T10:02:41.937Z,1023.92
2024-01-11T10:03:42.869Z,1023.90
2024-01-11T10:04:43.717Z,1023.90
2024-01-11T10:05:44.619Z,1023.86
2024-01-11T10:06:45.410Z,1023.85
2024-01-11T10:07:46.249Z,1023.85
2024-01-11T10:08:47.103Z,1023.85
2024-01-11T10:09:47.900Z,1023.83
2024-01-11T10:10:48.735Z,1023.81
2024-01-11T10:11:49.610Z,1023.81
2024-01-11T10:12:50.410Z,1023.77
2024-01-11T10:13:51.258Z,1023.74
2024-01-11T10:14:52.149Z,1023.74
2024-01-11T10:15:52.944Z,1023.70
2024-01-11T10:16:53.780Z,1023.69
2024-01-11T10:17:54.718Z,1023.72
2024-01-11T10:18:55.423Z,1023.71
2024-01-11T10:19:56.085Z,1023.71
2024-01-11T10:20:56.600Z,1023.74
2024-01-11T10:21:57.451Z,1023.76
2024-01-11T10:22:58.333Z,1023.80
2024-01-11T10:23:59.111Z,1023.80
2024-01-11T10:24:59.941Z,1023.81
2024-01-11T10:26:00.766Z,1023.85
2024-01-11T10:27:01.589Z,1023.83
2024-01-11T10:28:02.481Z,1023.84
2024-01-11T10:29:03.292Z,1023.89
2024-01-11T10:30:03.990Z,1023.87
2024-01-11T10:31:04.817Z,1023.83
2024-01-11T10:32:05.717Z,1023.83
2024-01-11T10:33:06.698Z,1023.82
2024-01-11T10:34:07.105Z,1023.79
2024-01-11T10:35:07.956Z,1023.79
2024-01-11T10:36:08.771Z,1023.80
2024-01-11T10:37:09.592Z,1023.80
2024-01-11T10:38:10.463Z,1023.77
2024-01-11T10:39:11.246Z,1023.76
2024-01-11T10:40:12.058Z,1023.75
2024-01-11T10:41:12.904Z,1023.76
2024-01-11T10:42:13.741Z,1023.76
2024-01-11T10:43:14.576Z,1023.75
2024-01-11T10:44:15.405Z,1023.74
2024-01-11T10:45:16.223Z,1023.72
2024-01-11T10:46:17.049Z,1023.73
2024-01-11T10:47:17.903Z,1023.74
2024-01-11T10:48:18.885Z,1023.76
2024-01-11T10:49:19.325Z,1023.75
2024-01-11T10:50:20.155Z,1023.74
2024-01-11T10:51:20.982Z,1023.76
2024-01-11T10:52:21.787Z,1023.74
2024-01-11T10:53:22.652Z,1023.74
2024-01-11T10:54:23.445Z,1023.73
2024-01-11T10:55:24.282Z,1023.67
2024-01-11T10:56:25.168Z,1023.63
2024-01-11T10:57:25.964Z,1023.60
2024-01-11T10:58:26.786Z,1023.57
2024-01-11T10:59:27.632Z,1023.55
2024-01-11T11:00:28.514Z,1023.49
2024-01-11T11:01:29.311Z,1023.50
2024-01-11T11:02:30.159Z,1023.50
2024-01-11T11:03:31.008Z,1023.48
2024-01-11T11:04:31.804Z,1023.47
2024-01-11T11:05:32.706Z,1023.44
2024-01-11T11:06:33.589Z,1023.41
2024-01-11T11:07:34.440Z,1023.41
2024-01-11T11:08:35.341Z,1023.42
2024-01-11T11:09:36.149Z,1023.41
2024-01-11T11:10:36.998Z,1023.36
2024-01-11T11:11:37.875Z,1023.34
2024-01-11T11:12:38.684Z,1023.33
2024-01-11T11:13:39.507Z,1023.30
2024-01-11T11:14:40.392Z,1023.27
2024-01-11T11:15:41.207Z,1023.27
2024-01-11T11:16:42.032Z,1023.24
2024-01-11T11:17:43.007Z,1023.22
2024-01-11T11:18:43.931Z,1023.22
2024-01-11T11:19:44.780Z,1023.20
2024-01-11T11:20:45.656Z,1023.20
2024-01-11T11:21:46.462Z,1023.17
2024-01-11T11:22:47.261Z,1023.12
2024-01-11T11:23:48.222Z,1023.10
2024-01-11T11:24:49.070Z,1023.05
2024-01-11T11:25:49.894Z,1022.99
2024-01-11T11:26:50.707Z,1022.93
2024-01-11T11:27:51.588Z,1022.84
2024-01-11T11:28:52.418Z,1022.81
2024-01-11T11:29:53.274Z,1022.76
2024-01-11T11:30:54.130Z,1022.75
2024-01-11T11:31:55.040Z,1022.75
2024-01-11T11:32:56.041Z,1022.76
2024-01-11T11:33:59.008Z,1022.73
2024-01-11T11:34:57.550Z,1022.72
2024-01-11T11:35:58.417Z,1022.70
2024-01-11T11:36:59.199Z,1022.71
2024-01-11T11:38:00.055Z,1022.76
2024-01-11T11:39:00.890Z,1022.72
2024-01-11T11:40:02.173Z,1022.72
2024-01-11T11:41:02.648Z,1022.74
2024-01-11T11:42:03.487Z,1022.73
2024-01-11T11:43:04.356Z,1022.71
2024-01-11T11:44:05.272Z,1022.69
2024-01-11T11:45:06.139Z,1022.69
2024-01-11T11:46:06.967Z,1022.69
2024-01-11T11:47:07.831Z,1022.71
2024-01-11T11:48:08.801Z,1022.74
2024-01-11T11:49:09.663Z,1022.76
2024-01-11T11:50:10.512Z,1022.78
2024-01-11T11:51:11.378Z,1022.73
2024-01-11T11:52:12.191Z,1022.69
2024-01-11T11:53:13.163Z,1022.65
2024-01-11T11:54:13.612Z,1022.60
2024-01-11T11:55:14.415Z,1022.55
2024-01-11T11:56:15.308Z,1022.52
2024-01-11T11:57:16.114Z,1022.53
2024-01-11T11:58:16.938Z,1022.53
2024-01-11T11:59:17.797Z,1022.54
2024-01-11T12:00:18.600Z,1022.52
2024-01-11T12:01:19.667Z,1022.51
2024-01-11T12:02:20.036Z,1022.43
2024-01-11T12:03:20.840Z,1022.41
2024-01-11T12:04:21.687Z,1022.39
2024-01-11T12:05:22.668Z,1022.36
2024-01-11T12:06:23.115Z,1022.37
2024-01-11T12:07:23.898Z,1022.34
2024-01-11T12:08:24.793Z,1022.35
2024-01-11T12:09:25.634Z,1022.36
2024-01-11T12:10:26.427Z,1022.35
2024-01-11T12:11:27.897Z,1022.33
2024-01-11T12:12:27.951Z,1022.33
2024-01-11T12:13:28.747Z,1022.31
2024-01-11T12:14:29.648Z,1022.32
2024-01-11T12:15:30.448Z,1022.35